Time;durP1;ratioP1;P1;durP2;ratioP2;P2;SDS_P1;SDS_P2;PMS_P1;PMS_P2;Temp;Humidity;BMP_temperature;BMP_pressure;BME280_temperature;BME280_humidity;BME280_pressure;Samples;Min_cycle;Max_cycle;Signal;HPM_P1;HPM_P2
2022/01/08 00:02:11;;;;;;;7.40;2.00;;;;;;;;;;5082530;28;20460;-60
2022/01/08 00:04:38;;;;;;;14.90;2.20;;;;;;;;;;5081057;28;20897;-61
2022/01/08 00:07:04;;;;;;;8.65;1.85;;;;;;;;;;5083281;28;20036;-60
2022/01/08 00:09:30;;;;;;;10.63;2.17;;;;;;;;;;5084850;28;20079;-60
2022/01/08 00:11:56;;;;;;;12.65;2.20;;;;;;;;;;5085459;28;20050;-60
2022/01/08 00:14:24;;;;;;;7.50;2.00;;;;;;;;;;5083898;28;20057;-61
2022/01/08 00:16:51;;;;;;;9.82;2.50;;;;;;;;;;5083044;28;20044;-61
2022/01/08 00:19:17;;;;;;;6.43;2.00;;;;;;;;;;5084325;28;20051;-61
2022/01/08 00:21:43;;;;;;;8.52;2.50;;;;;;;;;;5100034;28;20109;-61
2022/01/08 00:24:10;;;;;;;13.25;3.53;;;;;;;;;;5083446;28;20042;-61
2022/01/08 00:26:36;;;;;;;10.18;2.38;;;;;;;;;;5075996;28;20443;-61
2022/01/08 00:29:03;;;;;;;12.85;4.72;;;;;;;;;;5081169;28;20041;-61
2022/01/08 00:31:30;;;;;;;6.72;2.03;;;;;;;;;;5083110;28;20055;-60
2022/01/08 00:33:56;;;;;;;11.27;2.45;;;;;;;;;;5077593;28;20135;-61
2022/01/08 00:36:22;;;;;;;13.85;2.42;;;;;;;;;;5079537;28;20041;-61
2022/01/08 00:38:48;;;;;;;14.57;2.17;;;;;;;;;;5083477;28;20048;-61
2022/01/08 00:41:14;;;;;;;11.32;2.20;;;;;;;;;;5066922;28;20059;-61
2022/01/08 00:43:40;;;;;;;11.93;2.60;;;;;;;;;;5082759;28;20124;-61
2022/01/08 00:46:06;;;;;;;12.77;3.50;;;;;;;;;;5082655;28;20123;-60
2022/01/08 00:48:33;;;;;;;14.23;2.92;;;;;;;;;;5082404;28;20408;-61
2022/01/08 00:50:59;;;;;;;11.52;2.70;;;;;;;;;;5083989;28;20052;-61
2022/01/08 00:53:25;;;;;;;13.50;3.38;;;;;;;;;;5084138;28;20059;-60
2022/01/08 00:55:51;;;;;;;15.32;4.40;;;;;;;;;;5082826;28;20131;-60
2022/01/08 00:58:18;;;;;;;14.90;4.00;;;;;;;;;;5083714;28;20115;-61
2022/01/08 01:00:44;;;;;;;12.80;2.33;;;;;;;;;;5082917;28;20052;-61
2022/01/08 01:03:10;;;;;;;12.45;2.22;;;;;;;;;;5084186;28;20115;-61
2022/01/08 01:05:36;;;;;;;14.32;2.38;;;;;;;;;;5082290;28;20275;-61
2022/01/08 01:08:02;;;;;;;16.67;2.30;;;;;;;;;;5081841;28;20032;-61
2022/01/08 01:10:29;;;;;;;12.77;2.58;;;;;;;;;;5082383;28;20040;-61
2022/01/08 01:12:55;;;;;;;19.30;3.22;;;;;;;;;;5084729;28;20206;-61
2022/01/08 01:15:21;;;;;;;11.88;3.13;;;;;;;;;;5082104;28;20044;-60
2022/01/08 01:17:47;;;;;;;12.32;1.77;;;;;;;;;;5086096;28;20376;-60
2022/01/08 01:20:15;;;;;;;12.23;2.08;;;;;;;;;;5085488;28;20040;-60
2022/01/08 01:25:12;;;;;;;9.07;1.50;;;;;;;;;;5084141;28;20126;-61
2022/01/08 01:27:58;;;;;;;11.98;2.17;;;;;;;;;;5088427;28;20372;-61
2022/01/08 01:30:58;;;;;;;10.52;1.40;;;;;;;;;;5082840;28;20482;-60
2022/01/08 01:41:07;;;;;;;10.02;1.20;;;;;;;;;;5083917;28;20040;-61
2022/01/08 01:41:49;;;;;;;5.10;1.08;;;;;;;;;;5085496;28;20056;-61
2022/01/08 01:47:01;;;;;;;8.07;1.17;;;;;;;;;;5085183;28;20044;-60
2022/01/08 01:49:28;;;;;;;5.90;1.40;;;;;;;;;;5089940;28;20117;-61
2022/01/08 01:51:55;;;;;;;7.20;1.23;;;;;;;;;;5086481;28;20105;-60
2022/01/08 01:54:21;;;;;;;7.05;0.85;;;;;;;;;;5085298;28;20524;-61
2022/01/08 01:56:48;;;;;;;12.98;2.78;;;;;;;;;;5082553;28;20140;-61
2022/01/08 01:59:14;;;;;;;7.93;1.35;;;;;;;;;;5087456;28;20068;-60
2022/01/08 02:01:40;;;;;;;9.85;1.23;;;;;;;;;;5085173;28;20048;-61
2022/01/08 02:04:06;;;;;;;6.78;1.30;;;;;;;;;;5082177;28;20044;-61
2022/01/08 02:06:33;;;;;;;7.07;0.93;;;;;;;;;;5085988;28;20070;-60
2022/01/08 02:08:59;;;;;;;4.25;0.88;;;;;;;;;;5087673;28;20382;-61
2022/01/08 02:11:25;;;;;;;6.10;1.00;;;;;;;;;;5086345;28;20059;-60
2022/01/08 02:13:51;;;;;;;11.20;3.17;;;;;;;;;;5085179;28;20499;-60
2022/01/08 02:16:18;;;;;;;7.68;1.23;;;;;;;;;;5087308;28;20051;-61
2022/01/08 02:18:45;;;;;;;8.52;1.63;;;;;;;;;;5084468;28;20040;-60
2022/01/08 02:21:12;;;;;;;6.10;1.00;;;;;;;;;;5087790;28;20105;-60
2022/01/08 02:23:39;;;;;;;7.07;1.02;;;;;;;;;;5086805;28;20051;-60
2022/01/08 02:26:06;;;;;;;6.05;1.00;;;;;;;;;;5084192;28;20036;-61
2022/01/08 02:28:32;;;;;;;6.70;1.15;;;;;;;;;;5085412;28;20130;-61
2022/01/08 02:30:58;;;;;;;9.55;1.55;;;;;;;;;;5084916;28;20150;-60
2022/01/08 02:33:25;;;;;;;10.77;1.73;;;;;;;;;;5084812;28;20040;-60
2022/01/08 02:35:51;;;;;;;7.38;1.13;;;;;;;;;;5083324;28;20127;-60
2022/01/08 02:38:18;;;;;;;10.18;1.40;;;;;;;;;;5081747;28;20589;-60
2022/01/08 02:40:51;;;;;;;9.10;1.42;;;;;;;;;;5081814;28;20127;-60
2022/01/08 02:43:17;;;;;;;6.55;1.05;;;;;;;;;;5079885;28;20045;-60
2022/01/08 02:45:44;;;;;;;9.13;1.33;;;;;;;;;;5085189;28;20048;-61
2022/01/08 02:48:10;;;;;;;7.32;2.55;;;;;;;;;;5084047;28;20589;-61
2022/01/08 02:50:36;;;;;;;11.88;1.45;;;;;;;;;;5081380;28;20048;-61
2022/01/08 02:53:02;;;;;;;6.82;1.13;;;;;;;;;;5077994;28;20048;-61
2022/01/08 02:55:28;;;;;;;16.45;2.70;;;;;;;;;;5084533;28;20036;-61
2022/01/08 02:57:55;;;;;;;8.73;1.48;;;;;;;;;;5087651;28;20078;-60
2022/01/08 03:00:21;;;;;;;10.30;1.58;;;;;;;;;;5083585;28;20592;-61
2022/01/08 03:02:48;;;;;;;12.65;1.67;;;;;;;;;;5083763;28;20049;-61
2022/01/08 03:05:15;;;;;;;7.72;2.15;;;;;;;;;;5085230;28;20048;-61
2022/01/08 03:07:42;;;;;;;10.50;1.05;;;;;;;;;;5082502;28;20119;-60
2022/01/08 03:10:10;;;;;;;6.78;1.10;;;;;;;;;;5085226;28;20375;-60
2022/01/08 03:12:41;;;;;;;8.60;1.20;;;;;;;;;;5083281;28;20433;-60
2022/01/08 03:15:08;;;;;;;4.45;1.15;;;;;;;;;;5084428;28;20123;-60
2022/01/08 03:17:34;;;;;;;8.70;1.25;;;;;;;;;;5081283;28;20134;-60
2022/01/08 03:20:05;;;;;;;6.50;1.00;;;;;;;;;;5089103;28;20111;-60
2022/01/08 03:22:31;;;;;;;12.38;1.60;;;;;;;;;;5083852;28;20055;-61
2022/01/08 03:24:57;;;;;;;9.55;1.17;;;;;;;;;;5082874;28;20473;-61
2022/01/08 03:27:24;;;;;;;8.13;1.52;;;;;;;;;;5086846;28;20111;-61
2022/01/08 03:29:50;;;;;;;8.05;1.38;;;;;;;;;;5085435;28;20040;-60
2022/01/08 03:32:16;;;;;;;6.45;1.30;;;;;;;;;;5081453;28;20048;-60
2022/01/08 03:34:42;;;;;;;10.77;1.10;;;;;;;;;;5085237;28;20052;-60
2022/01/08 03:37:08;;;;;;;9.18;1.58;;;;;;;;;;5079776;28;20036;-60
2022/01/08 03:39:34;;;;;;;6.53;1.52;;;;;;;;;;5081581;28;20123;-60
2022/01/08 03:42:00;;;;;;;9.73;1.50;;;;;;;;;;5084090;28;20032;-60
2022/01/08 03:44:26;;;;;;;10.48;1.63;;;;;;;;;;5080674;28;20051;-60
2022/01/08 03:46:53;;;;;;;10.23;1.50;;;;;;;;;;5080551;28;20052;-60
2022/01/08 03:51:46;;;;;;;9.80;1.27;;;;;;;;;;5081446;28;20544;-60
2022/01/08 03:54:13;;;;;;;9.85;1.48;;;;;;;;;;5081906;28;20040;-60
2022/01/08 03:56:39;;;;;;;7.35;0.90;;;;;;;;;;5085106;28;20513;-61
2022/01/08 03:59:05;;;;;;;12.07;1.80;;;;;;;;;;5083974;28;20111;-61
2022/01/08 04:01:31;;;;;;;6.20;1.38;;;;;;;;;;5084810;28;20089;-60
2022/01/08 04:03:57;;;;;;;9.88;2.33;;;;;;;;;;5084050;28;20040;-60
2022/01/08 04:06:23;;;;;;;5.78;1.33;;;;;;;;;;5086497;28;20040;-61
2022/01/08 04:08:56;;;;;;;8.93;1.65;;;;;;;;;;5085306;28;20040;-60
2022/01/08 04:11:23;;;;;;;8.27;1.77;;;;;;;;;;5082687;28;20040;-61
2022/01/08 04:13:49;;;;;;;6.95;1.35;;;;;;;;;;5082696;28;20109;-61
2022/01/08 04:16:20;;;;;;;8.63;1.42;;;;;;;;;;5085813;28;20124;-60
2022/01/08 04:18:46;;;;;;;9.43;1.40;;;;;;;;;;5082579;28;20116;-60
2022/01/08 04:21:55;;;;;;;8.45;1.33;;;;;;;;;;5080961;28;20129;-60
2022/01/08 04:24:02;;;;;;;12.77;1.90;;;;;;;;;;5084404;28;20113;-60
2022/01/08 04:26:28;;;;;;;10.82;1.58;;;;;;;;;;5081843;28;20043;-60
2022/01/08 04:28:55;;;;;;;9.52;1.33;;;;;;;;;;5082497;28;20131;-60
2022/01/08 04:31:24;;;;;;;6.88;1.45;;;;;;;;;;5086773;28;20399;-60
2022/01/08 04:33:51;;;;;;;15.38;1.60;;;;;;;;;;5085372;28;20114;-60
2022/01/08 04:36:17;;;;;;;4.10;1.13;;;;;;;;;;5078525;28;20035;-60
2022/01/08 04:38:43;;;;;;;9.45;1.17;;;;;;;;;;5078861;28;20040;-61
2022/01/08 04:41:10;;;;;;;12.27;1.42;;;;;;;;;;5083793;28;20426;-60
2022/01/08 04:43:38;;;;;;;7.30;1.10;;;;;;;;;;5082839;28;20044;-60
2022/01/08 04:46:04;;;;;;;8.82;1.25;;;;;;;;;;5080555;28;20052;-60
2022/01/08 04:48:30;;;;;;;5.25;1.33;;;;;;;;;;5085534;28;20136;-61
2022/01/08 04:50:57;;;;;;;8.23;1.50;;;;;;;;;;5089519;28;20060;-61
2022/01/08 04:53:23;;;;;;;5.95;1.00;;;;;;;;;;5083768;28;20047;-61
2022/01/08 04:55:49;;;;;;;5.95;1.00;;;;;;;;;;5084333;28;20047;-61
2022/01/08 04:58:15;;;;;;;5.35;1.17;;;;;;;;;;5080652;28;20075;-61
2022/01/08 05:00:41;;;;;;;8.30;1.13;;;;;;;;;;5084303;28;20452;-61
2022/01/08 05:03:07;;;;;;;4.25;0.90;;;;;;;;;;5089722;28;20039;-61
2022/01/08 05:05:33;;;;;;;5.00;1.10;;;;;;;;;;5086151;28;20076;-61
2022/01/08 05:07:59;;;;;;;8.80;1.20;;;;;;;;;;5090147;28;20463;-61
2022/01/08 05:10:26;;;;;;;8.10;1.52;;;;;;;;;;5089223;28;20123;-61
2022/01/08 05:12:52;;;;;;;6.32;2.00;;;;;;;;;;5085473;28;20038;-61
2022/01/08 05:15:18;;;;;;;14.60;1.90;;;;;;;;;;5082666;28;20514;-61
2022/01/08 05:17:47;;;;;;;11.25;2.03;;;;;;;;;;5088665;28;20124;-61
2022/01/08 05:20:14;;;;;;;11.68;1.73;;;;;;;;;;5086224;28;20043;-61
2022/01/08 05:25:14;;;;;;;8.77;1.65;;;;;;;;;;5084569;28;20079;-60
2022/01/08 05:27:40;;;;;;;4.78;1.70;;;;;;;;;;5081850;28;20063;-60
2022/01/08 05:30:06;;;;;;;11.50;2.45;;;;;;;;;;5086090;28;20058;-60
2022/01/08 05:32:33;;;;;;;7.85;1.08;;;;;;;;;;5084285;28;20047;-62
2022/01/08 05:34:59;;;;;;;7.25;1.42;;;;;;;;;;5081743;28;20093;-60
2022/01/08 05:37:25;;;;;;;17.55;1.95;;;;;;;;;;5087510;28;20056;-61
2022/01/08 05:39:53;;;;;;;7.65;1.13;;;;;;;;;;5083336;28;20475;-60
2022/01/08 05:42:19;;;;;;;6.70;1.92;;;;;;;;;;5084584;28;20049;-61
2022/01/08 05:44:45;;;;;;;10.00;2.20;;;;;;;;;;5085984;28;20130;-60
2022/01/08 05:47:13;;;;;;;8.70;2.00;;;;;;;;;;5086963;28;20059;-60
2022/01/08 05:49:39;;;;;;;6.10;1.83;;;;;;;;;;5090098;28;20070;-61
2022/01/08 05:52:07;;;;;;;8.48;1.67;;;;;;;;;;5087783;28;20048;-60
2022/01/08 05:54:33;;;;;;;14.52;2.25;;;;;;;;;;5085969;28;20051;-60
2022/01/08 05:56:59;;;;;;;8.73;1.92;;;;;;;;;;5082242;28;20124;-61
2022/01/08 05:59:27;;;;;;;5.82;1.80;;;;;;;;;;5082884;28;20383;-61
2022/01/08 06:01:54;;;;;;;9.73;1.80;;;;;;;;;;5081908;28;20048;-61
2022/01/08 06:04:20;;;;;;;9.95;2.60;;;;;;;;;;5085061;28;20043;-60
2022/01/08 06:06:46;;;;;;;8.57;2.22;;;;;;;;;;5086604;28;20130;-60
2022/01/08 06:09:12;;;;;;;10.27;2.25;;;;;;;;;;5082961;28;20395;-60
2022/01/08 06:11:39;;;;;;;9.70;1.85;;;;;;;;;;5085430;28;20383;-60
2022/01/08 06:14:05;;;;;;;15.95;2.67;;;;;;;;;;5084003;28;20032;-60
2022/01/08 06:16:34;;;;;;;8.30;2.00;;;;;;;;;;5082957;28;20056;-61
2022/01/08 06:19:01;;;;;;;13.27;2.42;;;;;;;;;;5086175;28;20049;-60
2022/01/08 06:21:28;;;;;;;8.38;2.22;;;;;;;;;;5086469;28;20040;-60
2022/01/08 06:23:54;;;;;;;9.52;2.13;;;;;;;;;;5084830;28;20131;-61
2022/01/08 06:26:23;;;;;;;14.90;2.30;;;;;;;;;;5101012;27;20059;-60
2022/01/08 06:28:51;;;;;;;5.45;2.03;;;;;;;;;;5086643;28;20048;-60
2022/01/08 06:31:18;;;;;;;15.98;2.50;;;;;;;;;;5084883;28;20192;-60
2022/01/08 06:33:44;;;;;;;12.63;2.55;;;;;;;;;;5083769;28;20314;-60
2022/01/08 06:36:11;;;;;;;9.52;1.77;;;;;;;;;;5084599;28;20052;-60
2022/01/08 06:38:37;;;;;;;8.02;1.80;;;;;;;;;;5082872;28;20039;-60
2022/01/08 06:41:03;;;;;;;17.20;3.30;;;;;;;;;;5082496;28;20127;-60
2022/01/08 06:43:29;;;;;;;11.90;2.20;;;;;;;;;;5084400;28;20086;-60
2022/01/08 06:45:55;;;;;;;6.18;1.75;;;;;;;;;;5083341;28;20047;-60
2022/01/08 06:48:21;;;;;;;7.60;2.10;;;;;;;;;;5084230;28;20044;-60
2022/01/08 06:50:48;;;;;;;12.88;2.28;;;;;;;;;;5086410;28;20421;-60
2022/01/08 06:53:14;;;;;;;10.88;2.13;;;;;;;;;;5087311;28;20662;-61
2022/01/08 06:55:40;;;;;;;7.75;1.92;;;;;;;;;;5085390;28;20123;-60
2022/01/08 06:58:07;;;;;;;5.90;2.03;;;;;;;;;;5084850;28;20040;-60
2022/01/08 07:00:33;;;;;;;11.43;2.00;;;;;;;;;;5100803;27;20146;-61
2022/01/08 07:02:59;;;;;;;7.72;1.85;;;;;;;;;;5083443;28;20044;-60
2022/01/08 07:05:26;;;;;;;8.85;2.05;;;;;;;;;;5093904;27;20072;-60
2022/01/08 07:07:52;;;;;;;8.98;1.73;;;;;;;;;;5086532;28;20047;-60
2022/01/08 07:10:18;;;;;;;9.20;2.00;;;;;;;;;;5084883;28;20060;-61
2022/01/08 07:12:44;;;;;;;11.70;2.22;;;;;;;;;;5085234;28;20127;-60
2022/01/08 07:15:10;;;;;;;9.38;2.83;;;;;;;;;;5083254;28;20040;-60
2022/01/08 07:17:38;;;;;;;10.05;2.03;;;;;;;;;;5086705;28;20123;-61
2022/01/08 07:20:05;;;;;;;12.32;3.08;;;;;;;;;;5086179;28;20059;-61
2022/01/08 07:22:31;;;;;;;6.05;2.47;;;;;;;;;;5082149;28;20120;-60
2022/01/08 07:24:57;;;;;;;33.38;2.83;;;;;;;;;;5083716;28;20048;-61
2022/01/08 07:27:23;;;;;;;8.32;1.95;;;;;;;;;;5087556;28;20047;-60
2022/01/08 07:29:49;;;;;;;10.82;2.03;;;;;;;;;;5081915;28;20372;-61
2022/01/08 07:32:16;;;;;;;8.35;1.67;;;;;;;;;;5080962;28;20044;-61
2022/01/08 07:34:42;;;;;;;12.95;3.90;;;;;;;;;;5082850;28;20118;-61
2022/01/08 07:37:08;;;;;;;8.15;2.15;;;;;;;;;;5083190;28;20072;-61
2022/01/08 07:39:34;;;;;;;19.23;3.50;;;;;;;;;;5084251;28;20136;-61
2022/01/08 07:42:00;;;;;;;16.35;2.78;;;;;;;;;;5081095;28;21966;-60
2022/01/08 07:44:26;;;;;;;10.88;2.50;;;;;;;;;;5081910;28;20040;-61
2022/01/08 07:46:52;;;;;;;13.38;2.80;;;;;;;;;;5081206;28;20040;-62
2022/01/08 07:49:18;;;;;;;14.43;2.88;;;;;;;;;;5081278;28;20037;-62
2022/01/08 07:51:44;;;;;;;13.73;2.78;;;;;;;;;;5085258;28;20079;-61
2022/01/08 07:54:11;;;;;;;11.60;2.72;;;;;;;;;;5086516;28;20402;-61
2022/01/08 07:56:37;;;;;;;11.25;2.70;;;;;;;;;;5079433;28;20119;-61
2022/01/08 07:59:03;;;;;;;11.00;2.95;;;;;;;;;;5083536;28;20133;-61
2022/01/08 08:01:29;;;;;;;11.63;2.90;;;;;;;;;;5082895;28;20343;-61
2022/01/08 08:03:56;;;;;;;12.93;2.78;;;;;;;;;;5083166;28;20028;-61
2022/01/08 08:06:22;;;;;;;15.85;3.15;;;;;;;;;;5084481;28;20043;-61
2022/01/08 08:08:48;;;;;;;8.75;3.05;;;;;;;;;;5081150;28;20081;-62
2022/01/08 08:11:14;;;;;;;8.95;3.10;;;;;;;;;;5082736;28;20403;-62
2022/01/08 08:13:40;;;;;;;9.30;3.08;;;;;;;;;;5083083;28;20055;-61
2022/01/08 08:16:07;;;;;;;19.83;4.05;;;;;;;;;;5080962;28;20052;-63
2022/01/08 08:18:34;;;;;;;16.85;3.30;;;;;;;;;;5062530;28;20050;-63
2022/01/08 08:21:00;;;;;;;17.40;3.50;;;;;;;;;;5082858;28;20487;-63
2022/01/08 08:23:26;;;;;;;20.58;2.88;;;;;;;;;;5089114;28;20136;-64
2022/01/08 08:25:52;;;;;;;13.70;3.22;;;;;;;;;;5089191;28;20119;-63
2022/01/08 08:28:18;;;;;;;13.40;3.40;;;;;;;;;;5087088;28;21552;-63
2022/01/08 08:30:44;;;;;;;19.17;3.50;;;;;;;;;;5087650;28;20127;-63
2022/01/08 08:33:10;;;;;;;14.70;2.97;;;;;;;;;;5070251;28;20058;-64
2022/01/08 08:35:36;;;;;;;13.20;2.90;;;;;;;;;;5087831;28;20040;-63
2022/01/08 08:38:03;;;;;;;16.77;3.85;;;;;;;;;;5083697;28;20055;-63
2022/01/08 08:40:29;;;;;;;12.55;4.50;;;;;;;;;;5081587;28;20419;-63
2022/01/08 08:42:55;;;;;;;10.88;2.90;;;;;;;;;;5089701;28;20044;-63
2022/01/08 08:45:22;;;;;;;14.80;3.30;;;;;;;;;;5086219;28;20047;-63
2022/01/08 08:47:49;;;;;;;9.02;3.20;;;;;;;;;;5085800;28;20052;-63
2022/01/08 08:50:15;;;;;;;12.15;4.13;;;;;;;;;;5079979;28;20533;-63
2022/01/08 08:52:41;;;;;;;15.27;3.78;;;;;;;;;;5086696;28;20083;-63
2022/01/08 08:55:08;;;;;;;10.43;3.58;;;;;;;;;;5098775;28;20915;-63
2022/01/08 08:57:34;;;;;;;16.13;3.83;;;;;;;;;;5088212;28;20048;-62
2022/01/08 09:00:01;;;;;;;16.55;4.60;;;;;;;;;;5088602;28;20032;-63
2022/01/08 09:02:27;;;;;;;14.55;4.82;;;;;;;;;;5088482;28;20062;-63
2022/01/08 09:04:53;;;;;;;14.60;3.53;;;;;;;;;;5098736;28;20036;-64
2022/01/08 09:07:19;;;;;;;21.65;5.15;;;;;;;;;;5088061;28;20162;-63
2022/01/08 09:09:46;;;;;;;10.75;5.03;;;;;;;;;;5086903;28;20040;-63
2022/01/08 09:12:15;;;;;;;12.10;4.90;;;;;;;;;;5084936;28;20402;-63
2022/01/08 09:14:42;;;;;;;14.57;3.78;;;;;;;;;;5084825;28;20040;-63
2022/01/08 09:17:09;;;;;;;12.43;4.43;;;;;;;;;;5090976;28;20050;-63
2022/01/08 09:19:35;;;;;;;24.23;5.25;;;;;;;;;;5092128;28;20036;-63
2022/01/08 09:22:03;;;;;;;14.10;4.53;;;;;;;;;;5090254;28;20043;-64
2022/01/08 09:24:29;;;;;;;14.55;4.88;;;;;;;;;;5067970;28;20050;-63
2022/01/08 09:26:55;;;;;;;14.52;4.20;;;;;;;;;;5090744;28;20047;-63
2022/01/08 09:29:21;;;;;;;20.80;5.00;;;;;;;;;;5092163;28;20067;-63
2022/01/08 09:31:48;;;;;;;14.75;4.55;;;;;;;;;;5092289;28;20050;-63
2022/01/08 09:34:14;;;;;;;14.38;5.22;;;;;;;;;;5088176;28;20036;-63
2022/01/08 09:36:40;;;;;;;18.08;4.97;;;;;;;;;;5088777;28;20048;-63
2022/01/08 09:39:07;;;;;;;14.40;4.18;;;;;;;;;;5089523;28;20079;-63
2022/01/08 09:41:33;;;;;;;13.43;4.75;;;;;;;;;;5090381;28;20138;-63
2022/01/08 09:43:59;;;;;;;16.17;5.03;;;;;;;;;;5092924;28;20031;-63
2022/01/08 09:46:26;;;;;;;12.57;3.50;;;;;;;;;;5091290;28;20535;-64
2022/01/08 09:48:52;;;;;;;13.80;4.60;;;;;;;;;;5091974;28;20055;-63
2022/01/08 09:51:19;;;;;;;14.50;4.50;;;;;;;;;;5091482;28;20083;-63
2022/01/08 09:53:46;;;;;;;11.50;4.53;;;;;;;;;;5088598;28;20043;-63
2022/01/08 09:56:12;;;;;;;20.63;5.55;;;;;;;;;;5104212;27;20129;-63
2022/01/08 09:58:38;;;;;;;18.35;6.35;;;;;;;;;;5089802;28;20051;-63
2022/01/08 10:01:24;;;;;;;18.77;5.30;;;;;;;;;;5089834;28;20049;-63
2022/01/08 10:03:50;;;;;;;19.45;4.38;;;;;;;;;;5089517;28;20048;-63
2022/01/08 10:06:21;;;;;;;21.45;4.75;;;;;;;;;;5090819;28;20506;-63
2022/01/08 10:08:48;;;;;;;15.05;5.43;;;;;;;;;;5089969;28;20044;-63
2022/01/08 10:11:14;;;;;;;17.02;4.43;;;;;;;;;;5089064;28;20044;-63
2022/01/08 10:13:41;;;;;;;18.80;4.70;;;;;;;;;;5092356;28;20210;-63
2022/01/08 10:18:56;;;;;;;18.52;3.92;;;;;;;;;;5086453;28;20508;-64
2022/01/08 10:21:24;;;;;;;16.25;4.07;;;;;;;;;;5095136;28;20093;-63
2022/01/08 10:23:51;;;;;;;11.57;4.45;;;;;;;;;;5086247;28;20046;-63
2022/01/08 10:26:19;;;;;;;19.10;4.28;;;;;;;;;;5092057;28;20048;-63
2022/01/08 10:28:50;;;;;;;21.00;4.72;;;;;;;;;;5086567;28;20093;-63
2022/01/08 10:31:18;;;;;;;24.58;4.38;;;;;;;;;;5088540;28;20091;-63
2022/01/08 10:33:48;;;;;;;12.02;3.95;;;;;;;;;;5090221;28;20040;-63
2022/01/08 10:36:14;;;;;;;17.70;4.10;;;;;;;;;;5086029;28;20084;-62
2022/01/08 10:38:41;;;;;;;26.92;5.50;;;;;;;;;;5081452;28;20044;-63
2022/01/08 10:41:15;;;;;;;16.95;4.68;;;;;;;;;;5086065;28;20138;-63
2022/01/08 10:43:41;;;;;;;14.00;4.35;;;;;;;;;;5083797;28;20036;-63
2022/01/08 10:46:10;;;;;;;14.60;5.30;;;;;;;;;;5083358;28;20442;-64
2022/01/08 10:48:37;;;;;;;18.92;4.50;;;;;;;;;;5082859;28;20098;-62
2022/01/08 10:51:11;;;;;;;13.18;4.32;;;;;;;;;;5083043;28;20337;-65
2022/01/08 10:53:52;;;;;;;15.45;4.70;;;;;;;;;;5063234;28;20075;-63
2022/01/08 10:56:22;;;;;;;26.27;6.20;;;;;;;;;;5093157;28;20404;-62
2022/01/08 10:58:52;;;;;;;13.45;4.57;;;;;;;;;;5088365;28;20048;-62
2022/01/08 11:01:39;;;;;;;15.77;5.05;;;;;;;;;;5087961;28;20471;-62
2022/01/08 11:04:08;;;;;;;16.25;5.38;;;;;;;;;;5088642;28;20065;-62
2022/01/08 11:06:50;;;;;;;19.25;5.70;;;;;;;;;;5082349;27;20110;-61
2022/01/08 11:09:16;;;;;;;15.52;5.18;;;;;;;;;;5049517;28;20059;-61
2022/01/08 11:11:44;;;;;;;30.83;7.97;;;;;;;;;;5065272;28;20072;-61
2022/01/08 11:14:21;;;;;;;23.63;6.22;;;;;;;;;;5064392;28;20500;-62
2022/01/08 11:16:50;;;;;;;16.17;5.80;;;;;;;;;;5067452;28;20166;-62
2022/01/08 11:19:17;;;;;;;14.27;5.70;;;;;;;;;;5031433;28;20041;-62
2022/01/08 11:21:43;;;;;;;18.73;6.55;;;;;;;;;;5050574;28;20048;-67
2022/01/08 11:24:10;;;;;;;24.83;6.72;;;;;;;;;;5053452;28;20511;-62
2022/01/08 11:26:37;;;;;;;15.70;6.30;;;;;;;;;;5051613;28;20110;-62
2022/01/08 11:29:04;;;;;;;15.27;5.57;;;;;;;;;;5052607;28;20098;-62
2022/01/08 11:31:31;;;;;;;18.05;5.97;;;;;;;;;;5064392;28;20076;-61
2022/01/08 11:34:04;;;;;;;16.77;5.25;;;;;;;;;;5050506;28;20041;-62
2022/01/08 11:36:31;;;;;;;20.77;6.47;;;;;;;;;;5065572;28;20055;-62
2022/01/08 11:38:58;;;;;;;16.40;5.72;;;;;;;;;;5049388;28;20041;-62
2022/01/08 11:41:24;;;;;;;17.25;5.72;;;;;;;;;;5065205;28;20498;-62
2022/01/08 11:43:51;;;;;;;14.80;7.05;;;;;;;;;;5064071;28;20051;-61
2022/01/08 11:46:17;;;;;;;16.98;5.80;;;;;;;;;;5065136;28;20639;-62
2022/01/08 11:48:45;;;;;;;16.75;5.72;;;;;;;;;;5052565;28;20048;-62
2022/01/08 11:51:16;;;;;;;18.40;6.40;;;;;;;;;;5058214;28;20036;-61
2022/01/08 11:53:46;;;;;;;20.73;5.38;;;;;;;;;;5064668;28;20044;-60
2022/01/08 11:56:21;;;;;;;19.48;5.85;;;;;;;;;;5064240;28;20067;-62
2022/01/08 11:59:01;;;;;;;14.60;6.13;;;;;;;;;;5065252;28;20451;-61
2022/01/08 12:01:27;;;;;;;14.25;6.15;;;;;;;;;;5063873;28;20060;-61
2022/01/08 12:03:55;;;;;;;16.88;7.38;;;;;;;;;;5063104;28;20239;-61
2022/01/08 12:06:23;;;;;;;40.95;9.70;;;;;;;;;;5064088;28;20519;-61
2022/01/08 12:08:57;;;;;;;25.23;6.50;;;;;;;;;;5064551;28;20052;-61
2022/01/08 12:11:24;;;;;;;18.23;5.93;;;;;;;;;;5063270;28;20048;-60
2022/01/08 12:13:50;;;;;;;16.50;7.05;;;;;;;;;;5051472;28;20045;-60
2022/01/08 12:16:35;;;;;;;16.65;7.05;;;;;;;;;;5058654;28;20063;-60
2022/01/08 12:19:02;;;;;;;19.65;7.43;;;;;;;;;;5050676;28;20749;-60
2022/01/08 12:21:30;;;;;;;16.80;7.03;;;;;;;;;;5050380;28;20152;-61
2022/01/08 12:23:59;;;;;;;15.57;7.28;;;;;;;;;;5049320;28;20057;-61
2022/01/08 12:26:25;;;;;;;14.43;7.45;;;;;;;;;;5051624;28;20056;-61
2022/01/08 12:28:53;;;;;;;17.58;7.80;;;;;;;;;;5020902;28;20041;-61
2022/01/08 12:31:21;;;;;;;18.52;7.15;;;;;;;;;;5051001;28;20059;-61
2022/01/08 12:33:47;;;;;;;19.02;8.25;;;;;;;;;;5050261;28;20087;-69
2022/01/08 12:36:28;;;;;;;17.55;8.10;;;;;;;;;;5034969;28;20040;-61
2022/01/08 12:39:01;;;;;;;26.67;9.35;;;;;;;;;;5046666;28;20045;-62
2022/01/08 12:41:27;;;;;;;17.58;8.77;;;;;;;;;;5032539;28;20109;-62
2022/01/08 12:43:53;;;;;;;19.48;9.95;;;;;;;;;;5051793;28;20426;-61
2022/01/08 12:46:21;;;;;;;20.65;8.20;;;;;;;;;;5049831;28;20166;-61
2022/01/08 12:49:04;;;;;;;15.90;8.60;;;;;;;;;;5036385;28;20064;-61
2022/01/08 12:51:41;;;;;;;16.70;8.75;;;;;;;;;;5034937;28;20484;-61
2022/01/08 12:54:07;;;;;;;21.13;8.52;;;;;;;;;;5060659;28;20354;-61
2022/01/08 12:56:34;;;;;;;15.35;8.75;;;;;;;;;;5051388;28;20118;-61
2022/01/08 12:59:02;;;;;;;17.63;7.70;;;;;;;;;;5048588;28;20492;-61
2022/01/08 13:01:30;;;;;;;17.83;9.32;;;;;;;;;;5049742;28;20102;-61
2022/01/08 13:03:57;;;;;;;14.80;9.48;;;;;;;;;;5029281;28;20032;-61
2022/01/08 13:06:25;;;;;;;17.73;9.27;;;;;;;;;;5049600;28;20057;-61
2022/01/08 13:08:52;;;;;;;17.55;8.57;;;;;;;;;;5033223;28;20048;-60
2022/01/08 13:11:19;;;;;;;17.50;9.07;;;;;;;;;;5031286;28;20099;-61
2022/01/08 13:13:47;;;;;;;18.60;9.68;;;;;;;;;;5050416;28;20082;-60
2022/01/08 13:16:14;;;;;;;14.13;9.18;;;;;;;;;;5048548;28;20044;-61
2022/01/08 13:18:40;;;;;;;14.50;7.93;;;;;;;;;;5049378;28;20037;-61
2022/01/08 13:21:07;;;;;;;16.33;8.45;;;;;;;;;;5047596;28;20194;-61
2022/01/08 13:23:49;;;;;;;14.82;8.13;;;;;;;;;;5046657;28;20041;-60
2022/01/08 13:26:16;;;;;;;13.35;7.50;;;;;;;;;;5046284;28;20049;-61
2022/01/08 13:28:48;;;;;;;16.00;7.72;;;;;;;;;;5046061;28;20548;-60
2022/01/08 13:31:15;;;;;;;11.95;7.20;;;;;;;;;;5046485;28;20045;-62
2022/01/08 13:33:41;;;;;;;13.43;5.80;;;;;;;;;;5032132;28;20052;-60
2022/01/08 13:36:12;;;;;;;11.25;5.95;;;;;;;;;;5047775;28;20381;-60
2022/01/08 13:38:39;;;;;;;12.63;6.57;;;;;;;;;;5037632;28;20048;-60
2022/01/08 13:41:07;;;;;;;11.93;5.95;;;;;;;;;;5033687;28;20048;-60
2022/01/08 13:43:52;;;;;;;10.27;4.65;;;;;;;;;;5048287;28;20041;-60
2022/01/08 13:46:19;;;;;;;6.95;3.92;;;;;;;;;;5048366;28;20500;-60
2022/01/08 13:48:45;;;;;;;9.77;5.47;;;;;;;;;;5046769;28;20109;-60
2022/01/08 13:51:11;;;;;;;9.38;5.10;;;;;;;;;;5047036;28;20044;-60
2022/01/08 13:53:37;;;;;;;14.43;5.80;;;;;;;;;;5047466;28;20044;-60
2022/01/08 13:56:04;;;;;;;12.98;5.50;;;;;;;;;;5030477;28;20055;-60
2022/01/08 13:58:31;;;;;;;13.55;6.55;;;;;;;;;;5050635;28;20145;-61
2022/01/08 14:01:05;;;;;;;15.57;6.53;;;;;;;;;;5049168;28;20124;-61
2022/01/08 14:03:42;;;;;;;13.10;6.75;;;;;;;;;;5046863;28;20230;-60
2022/01/08 14:06:08;;;;;;;16.95;6.88;;;;;;;;;;5030444;28;20122;-61
2022/01/08 14:08:35;;;;;;;15.25;7.38;;;;;;;;;;5046956;28;20060;-61
2022/01/08 14:11:03;;;;;;;16.73;7.43;;;;;;;;;;5048601;28;20052;-60
2022/01/08 14:13:30;;;;;;;14.93;6.97;;;;;;;;;;5049364;28;20041;-59
2022/01/08 14:16:04;;;;;;;13.27;6.55;;;;;;;;;;5047028;28;20045;-60
2022/01/08 14:18:30;;;;;;;13.63;6.55;;;;;;;;;;5047888;28;20049;-60
2022/01/08 14:21:10;;;;;;;15.50;6.55;;;;;;;;;;5047053;28;20041;-60
2022/01/08 14:23:37;;;;;;;19.65;7.55;;;;;;;;;;5028292;28;20061;-60
2022/01/08 14:26:12;;;;;;;18.73;7.72;;;;;;;;;;5027432;28;20384;-60
2022/01/08 14:28:38;;;;;;;20.25;8.48;;;;;;;;;;5043988;28;20424;-60
2022/01/08 14:31:15;;;;;;;15.25;8.82;;;;;;;;;;5040887;28;20350;-60
2022/01/08 14:33:59;;;;;;;15.48;10.07;;;;;;;;;;5045515;28;20235;-60
2022/01/08 14:36:25;;;;;;;20.60;10.45;;;;;;;;;;5048822;28;20528;-60
2022/01/08 14:38:52;;;;;;;19.27;11.15;;;;;;;;;;5047381;28;20070;-60
2022/01/08 14:41:35;;;;;;;18.80;11.02;;;;;;;;;;5047093;28;20037;-60
2022/01/08 14:44:02;;;;;;;27.08;12.07;;;;;;;;;;5032378;28;20044;-61
2022/01/08 14:46:29;;;;;;;25.33;13.10;;;;;;;;;;5047874;28;20127;-61
2022/01/08 14:48:55;;;;;;;22.17;12.88;;;;;;;;;;5045646;28;20041;-60
2022/01/08 14:51:21;;;;;;;26.08;12.95;;;;;;;;;;5030623;28;20056;-60
2022/01/08 14:53:48;;;;;;;25.73;12.98;;;;;;;;;;5044799;28;20119;-60
2022/01/08 14:56:14;;;;;;;22.23;12.80;;;;;;;;;;5048076;28;20120;-60